createdAt,value
2022-09-03T00:00:04.638Z,15.52
2022-09-03T00:01:04.629Z,15.52
2022-09-03T00:02:04.670Z,15.51
2022-09-03T00:03:04.703Z,15.55
2022-09-03T00:04:04.594Z,15.48
2022-09-03T00:05:04.595Z,15.44
2022-09-03T00:06:04.623Z,15.48
2022-09-03T00:07:04.580Z,15.46
2022-09-03T00:08:04.553Z,15.56
2022-09-03T00:09:04.589Z,15.59
2022-09-03T00:10:04.539Z,15.66
2022-09-03T00:11:04.547Z,15.67
2022-09-03T00:12:04.547Z,15.66
2022-09-03T00:13:04.496Z,15.76
2022-09-03T00:14:04.516Z,15.88
2022-09-03T00:15:04.505Z,15.78
2022-09-03T00:16:04.597Z,15.81
2022-09-03T00:17:04.489Z,15.91
2022-09-03T00:18:04.456Z,15.92
2022-09-03T00:19:04.441Z,15.91
2022-09-03T00:20:04.444Z,15.91
2022-09-03T00:21:04.427Z,15.96
2022-09-03T00:22:04.442Z,15.98
2022-09-03T00:23:04.395Z,16.10
2022-09-03T00:24:04.382Z,16.01
2022-09-03T00:25:04.382Z,16.08
2022-09-03T00:26:04.380Z,16.10
2022-09-03T00:27:04.399Z,16.14
2022-09-03T00:28:04.339Z,16.17
2022-09-03T00:29:04.357Z,16.32
2022-09-03T00:30:04.329Z,16.32
2022-09-03T00:31:04.349Z,16.36
2022-09-03T00:32:04.313Z,16.34
2022-09-03T00:33:04.277Z,16.41
2022-09-03T00:34:04.282Z,16.52
2022-09-03T00:35:04.263Z,16.52
2022-09-03T00:36:04.354Z,16.52
2022-09-03T00:37:04.271Z,16.48
2022-09-03T00:38:04.236Z,16.42
2022-09-03T00:39:04.255Z,16.51
2022-09-03T00:40:04.262Z,16.50
2022-09-03T00:41:04.243Z,16.45
2022-09-03T00:42:04.231Z,16.47
2022-09-03T00:43:04.196Z,16.44
2022-09-03T00:44:04.191Z,16.50
2022-09-03T00:45:04.153Z,16.32
2022-09-03T00:46:04.170Z,16.37
2022-09-03T00:47:04.186Z,16.33
2022-09-03T00:48:04.151Z,16.34
2022-09-03T00:49:04.127Z,16.32
2022-09-03T00:50:04.179Z,16.27
2022-09-03T00:51:04.192Z,16.26
2022-09-03T00:52:04.114Z,16.23
2022-09-03T00:53:04.098Z,16.26
2022-09-03T00:54:04.074Z,16.26
2022-09-03T00:55:04.050Z,16.40
2022-09-03T00:56:04.086Z,16.55
2022-09-03T00:57:04.043Z,16.57
2022-09-03T00:58:04.047Z,16.59
2022-09-03T00:59:04.026Z,16.67
2022-09-03T01:00:03.986Z,16.67
2022-09-03T01:01:03.984Z,16.67
2022-09-03T01:02:04.093Z,16.67
2022-09-03T01:03:04.023Z,16.73
2022-09-03T01:04:03.965Z,16.69
2022-09-03T01:05:03.970Z,16.73
2022-09-03T01:06:03.919Z,16.73
2022-09-03T01:07:03.975Z,16.72
2022-09-03T01:08:03.913Z,16.75
2022-09-03T01:09:03.946Z,16.73
2022-09-03T01:10:03.887Z,16.77
2022-09-03T01:11:03.900Z,16.73
2022-09-03T01:12:03.876Z,16.73
2022-09-03T01:13:03.896Z,16.73
2022-09-03T01:14:03.831Z,16.65
2022-09-03T01:15:03.840Z,16.78
2022-09-03T01:16:03.867Z,16.78
2022-09-03T01:17:03.860Z,16.80
2022-09-03T01:18:03.788Z,16.81
2022-09-03T01:19:03.783Z,16.82
2022-09-03T01:20:03.771Z,16.82
2022-09-03T01:21:03.781Z,16.82
2022-09-03T01:22:03.796Z,16.70
2022-09-03T01:23:03.742Z,16.73
2022-09-03T01:24:03.740Z,16.77
2022-09-03T01:25:03.753Z,16.69
2022-09-03T01:26:03.719Z,16.77
2022-09-03T01:27:03.765Z,16.67
2022-09-03T01:28:03.684Z,16.63
2022-09-03T01:29:03.706Z,16.59
2022-09-03T01:30:03.661Z,16.60
2022-09-03T01:31:03.727Z,16.57
2022-09-03T01:32:03.685Z,16.54
2022-09-03T01:33:03.650Z,16.44
2022-09-03T01:34:03.618Z,16.32
2022-09-03T01:35:03.697Z,16.25
2022-09-03T01:36:03.638Z,16.25
2022-09-03T01:37:03.592Z,16.18
2022-09-03T01:38:03.624Z,16.06
2022-09-03T01:39:03.565Z,16.03
2022-09-03T01:40:03.698Z,16.06
2022-09-03T01:41:03.581Z,15.99
2022-09-03T01:42:03.557Z,16.08
2022-09-03T01:43:03.531Z,16.06
2022-09-03T01:44:03.574Z,16.16
2022-09-03T01:45:03.498Z,16.11
2022-09-03T01:46:03.565Z,16.11
2022-09-03T01:47:03.491Z,16.07
2022-09-03T01:48:03.486Z,16.10
2022-09-03T01:49:03.465Z,16.08
2022-09-03T01:50:03.476Z,16.11
2022-09-03T01:51:03.460Z,16.03
2022-09-03T01:52:03.479Z,16.10
2022-09-03T01:53:03.440Z,16.10
2022-09-03T01:54:03.435Z,16.18
2022-09-03T01:55:03.407Z,16.33
2022-09-03T01:56:03.402Z,16.45
2022-09-03T01:57:03.427Z,16.57
2022-09-03T01:58:03.368Z,16.63
2022-09-03T01:59:03.407Z,16.66
2022-09-03T02:00:03.341Z,16.72
2022-09-03T02:01:03.389Z,16.80
2022-09-03T02:02:03.477Z,16.80
2022-09-03T02:03:03.365Z,16.90
2022-09-03T02:04:03.317Z,16.96
2022-09-03T02:05:03.309Z,16.99
2022-09-03T02:06:03.284Z,17.02
2022-09-03T02:07:03.311Z,16.98
2022-09-03T02:08:03.294Z,17.02
2022-09-03T02:09:03.253Z,17.09
2022-09-03T02:10:03.253Z,17.05
2022-09-03T02:11:03.246Z,17.02
2022-09-03T02:12:03.242Z,17.03
2022-09-03T02:16:44.808Z,17.00
2022-09-03T02:17:44.792Z,17.05
2022-09-03T02:18:44.767Z,17.03
2022-09-03T02:19:44.757Z,17.00
2022-09-03T02:20:44.741Z,16.98
2022-09-03T02:21:44.737Z,16.92
2022-09-03T02:22:44.741Z,16.95
2022-09-03T02:23:44.780Z,16.92
2022-09-03T02:24:44.724Z,16.90
2022-09-03T02:25:44.719Z,16.96
2022-09-03T02:26:44.692Z,16.87
2022-09-03T02:27:44.692Z,16.87
2022-09-03T02:28:44.692Z,16.85
2022-09-03T02:29:44.654Z,16.77
2022-09-03T02:30:44.707Z,16.81
2022-09-03T02:31:44.726Z,16.78
2022-09-03T02:32:44.632Z,16.72
2022-09-03T02:33:44.644Z,16.65
2022-09-03T02:34:44.743Z,16.57
2022-09-03T02:35:44.636Z,16.52
2022-09-03T02:36:44.576Z,16.50
2022-09-03T02:37:44.647Z,16.50
2022-09-03T02:38:44.550Z,16.47
2022-09-03T02:39:44.602Z,16.36
2022-09-03T02:40:44.532Z,16.44
2022-09-03T02:41:44.588Z,16.50
2022-09-03T02:42:44.528Z,16.65
2022-09-03T02:43:44.527Z,16.60
2022-09-03T02:44:44.491Z,16.62
2022-09-03T02:45:44.598Z,16.55
2022-09-03T02:46:44.486Z,16.62
2022-09-03T02:47:44.490Z,16.59
2022-09-03T02:48:44.447Z,16.50
2022-09-03T02:49:44.525Z,16.51
2022-09-03T02:50:44.421Z,16.47
2022-09-03T02:51:44.414Z,16.36
2022-09-03T02:52:44.458Z,16.32
2022-09-03T02:53:44.452Z,16.30
2022-09-03T02:54:44.386Z,16.25
2022-09-03T02:55:44.366Z,16.29
2022-09-03T02:56:44.376Z,16.34
2022-09-03T02:57:44.402Z,16.48
2022-09-03T02:58:44.354Z,16.54
2022-09-03T02:59:44.371Z,16.52
2022-09-03T03:00:44.335Z,16.59
2022-09-03T03:01:44.331Z,16.59
2022-09-03T03:02:44.395Z,16.57
2022-09-03T03:03:44.315Z,16.54
2022-09-03T03:04:44.308Z,16.47
2022-09-03T03:05:44.262Z,16.44
2022-09-03T03:06:47.608Z,16.36
2022-09-03T03:07:44.346Z,16.40
2022-09-03T03:08:44.267Z,16.27
2022-09-03T03:09:44.224Z,16.16
2022-09-03T03:10:44.207Z,16.06
2022-09-03T03:11:44.192Z,16.04
2022-09-03T03:12:44.236Z,16.08
2022-09-03T03:13:44.204Z,15.96
2022-09-03T03:14:44.178Z,15.92
2022-09-03T03:15:44.140Z,15.99
2022-09-03T03:16:44.191Z,15.93
2022-09-03T03:17:44.162Z,15.89
2022-09-03T03:18:44.146Z,15.80
2022-09-03T03:19:44.099Z,15.86
2022-09-03T03:20:44.141Z,15.92
2022-09-03T03:21:44.110Z,15.77
2022-09-03T03:22:44.087Z,15.80
2022-09-03T03:23:44.073Z,15.92
2022-09-03T03:24:44.042Z,15.88
2022-09-03T03:25:44.039Z,15.91
2022-09-03T03:26:44.060Z,15.92
2022-09-03T03:27:44.050Z,15.92
2022-09-03T03:28:44.035Z,15.92
2022-09-03T03:29:43.997Z,15.91
2022-09-03T03:30:44.047Z,16.03
2022-09-03T03:31:43.965Z,15.98
2022-09-03T03:32:44.059Z,15.98
2022-09-03T03:33:43.958Z,16.03
2022-09-03T03:34:43.962Z,16.03
2022-09-03T03:35:43.938Z,16.27
2022-09-03T03:36:43.938Z,16.11
2022-09-03T03:37:43.931Z,16.27
2022-09-03T03:38:43.899Z,16.29
2022-09-03T03:39:43.967Z,16.40
2022-09-03T03:40:43.915Z,16.30
2022-09-03T03:41:43.854Z,16.41
2022-09-03T03:42:43.934Z,16.54
2022-09-03T03:43:43.841Z,16.48
2022-09-03T03:44:43.851Z,16.47
2022-09-03T03:45:43.848Z,16.51
2022-09-03T03:46:43.815Z,16.66
2022-09-03T03:47:43.810Z,16.77
2022-09-03T03:48:43.833Z,16.84
2022-09-03T03:49:43.796Z,16.98
2022-09-03T03:50:43.769Z,17.14
2022-09-03T03:51:43.740Z,17.20
2022-09-03T03:52:43.760Z,17.25
2022-09-03T03:53:43.742Z,17.25
2022-09-03T03:54:43.736Z,17.32
2022-09-03T03:55:43.704Z,17.32
2022-09-03T03:56:43.689Z,17.32
2022-09-03T03:57:43.680Z,17.35
2022-09-03T03:58:43.772Z,17.30
2022-09-03T03:59:43.665Z,17.35
2022-09-03T04:00:43.670Z,17.38
2022-09-03T04:01:43.674Z,17.42
2022-09-03T04:02:43.698Z,17.24
2022-09-03T04:03:43.639Z,17.27
2022-09-03T04:04:43.684Z,17.25
2022-09-03T04:05:43.936Z,17.35
2022-09-03T04:06:43.614Z,17.25
2022-09-03T04:07:43.576Z,17.30
2022-09-03T04:08:43.646Z,17.27
2022-09-03T04:09:43.555Z,17.21
2022-09-03T04:10:43.590Z,17.22
2022-09-03T04:11:43.519Z,17.33
2022-09-03T04:12:43.540Z,17.22
2022-09-03T04:13:43.502Z,17.25
2022-09-03T04:14:43.558Z,17.27
2022-09-03T04:15:43.483Z,17.24
2022-09-03T04:16:43.566Z,17.22
2022-09-03T04:17:43.479Z,17.28
2022-09-03T04:18:43.474Z,17.35
2022-09-03T04:19:43.439Z,17.28
2022-09-03T04:20:43.422Z,17.25
2022-09-03T04:21:43.436Z,17.27
2022-09-03T04:22:43.438Z,17.24
2022-09-03T04:23:43.401Z,17.35
2022-09-03T04:24:43.388Z,17.27
2022-09-03T04:25:43.396Z,17.28
2022-09-03T04:26:43.443Z,17.27
2022-09-03T04:27:43.363Z,17.42
2022-09-03T04:28:43.346Z,17.36
2022-09-03T04:29:43.336Z,17.43
2022-09-03T04:30:43.371Z,17.42
2022-09-03T04:31:43.355Z,17.39
2022-09-03T04:32:43.431Z,17.36
2022-09-03T04:33:43.285Z,17.38
2022-09-03T04:34:43.311Z,17.47
2022-09-03T04:35:43.319Z,17.46
2022-09-03T04:36:43.452Z,17.45
2022-09-03T04:37:43.256Z,17.49
2022-09-03T04:38:43.303Z,17.40
2022-09-03T04:39:43.270Z,17.28
2022-09-03T04:40:43.233Z,17.20
2022-09-03T04:41:43.205Z,17.24
2022-09-03T04:42:43.217Z,17.18
2022-09-03T04:43:43.204Z,17.09
2022-09-03T04:44:43.223Z,17.10
2022-09-03T04:45:43.234Z,17.14
2022-09-03T04:46:43.151Z,16.99
2022-09-03T04:47:43.170Z,17.02
2022-09-03T04:48:43.150Z,16.96
2022-09-03T04:49:43.156Z,16.90
2022-09-03T04:50:43.175Z,16.90
2022-09-03T04:51:43.134Z,16.92
2022-09-03T04:52:43.128Z,16.91
2022-09-03T04:53:43.131Z,16.91
2022-09-03T04:54:43.114Z,16.88
2022-09-03T04:55:43.053Z,16.88
2022-09-03T04:56:43.047Z,16.90
2022-09-03T04:57:43.043Z,16.87
2022-09-03T04:58:43.300Z,16.85
2022-09-03T04:59:43.031Z,16.82
2022-09-03T05:00:43.101Z,16.84
2022-09-03T05:01:43.007Z,16.84
2022-09-03T05:02:42.995Z,16.81
2022-09-03T05:03:43.053Z,16.90
2022-09-03T05:04:42.956Z,16.95
2022-09-03T05:05:42.953Z,16.92
2022-09-03T05:06:42.988Z,17.03
2022-09-03T05:07:42.933Z,17.14
2022-09-03T05:08:42.947Z,17.10
2022-09-03T05:09:42.945Z,17.15
2022-09-03T05:10:42.899Z,17.10
2022-09-03T05:11:42.907Z,17.28
2022-09-03T05:12:42.872Z,17.25
2022-09-03T05:13:42.863Z,17.22
2022-09-03T05:14:42.936Z,17.20
2022-09-03T05:15:42.875Z,17.12
2022-09-03T05:16:42.889Z,17.14
2022-09-03T05:17:43.871Z,17.02
2022-09-03T05:18:42.804Z,17.00
2022-09-03T05:19:42.809Z,16.90
2022-09-03T05:20:42.820Z,16.91
2022-09-03T05:21:42.860Z,16.69
2022-09-03T05:22:42.793Z,16.73
2022-09-03T05:23:42.785Z,16.70
2022-09-03T05:24:42.746Z,16.69
2022-09-03T05:25:42.798Z,16.63
2022-09-03T05:26:42.766Z,16.60
2022-09-03T05:27:42.737Z,16.60
2022-09-03T05:28:42.722Z,16.72
2022-09-03T05:29:42.741Z,16.69
2022-09-03T05:30:42.679Z,16.72
2022-09-03T05:31:42.778Z,16.78
2022-09-03T05:32:42.651Z,16.81
2022-09-03T05:33:42.691Z,16.75
2022-09-03T05:34:42.665Z,16.82
2022-09-03T05:35:42.709Z,16.81
2022-09-03T05:36:42.645Z,16.85
2022-09-03T05:37:42.647Z,16.73
2022-09-03T05:38:42.584Z,16.72
2022-09-03T05:39:42.660Z,16.84
2022-09-03T05:40:42.567Z,16.82
2022-09-03T05:41:42.552Z,16.82
2022-09-03T05:42:42.555Z,16.78
2022-09-03T05:43:42.627Z,16.84
2022-09-03T05:44:42.523Z,16.84
2022-09-03T05:45:42.595Z,16.80
2022-09-03T05:46:42.510Z,16.84
2022-09-03T05:47:42.547Z,16.88
2022-09-03T05:48:42.599Z,16.92
2022-09-03T05:49:42.638Z,16.99
2022-09-03T05:50:42.478Z,17.05
2022-09-03T05:51:42.475Z,17.10
2022-09-03T05:52:42.438Z,17.14
2022-09-03T05:53:42.467Z,17.22
2022-09-03T05:54:42.413Z,17.33
2022-09-03T05:55:42.441Z,17.18
2022-09-03T05:56:42.399Z,17.22
2022-09-03T05:57:42.411Z,17.32
2022-09-03T05:58:42.427Z,17.24
2022-09-03T05:59:42.370Z,17.25
2022-09-03T06:00:42.351Z,17.28
2022-09-03T06:01:44.020Z,17.38
2022-09-03T06:02:43.551Z,17.40
2022-09-03T06:03:42.590Z,17.40
2022-09-03T06:04:42.349Z,17.36
2022-09-03T06:05:42.308Z,17.36
2022-09-03T06:06:42.341Z,17.33
2022-09-03T06:07:42.323Z,17.39
2022-09-03T06:08:42.302Z,17.49
2022-09-03T06:09:42.303Z,17.47
2022-09-03T06:10:42.289Z,17.53
2022-09-03T06:11:42.248Z,17.53
2022-09-03T06:12:42.273Z,17.53
2022-09-03T06:13:42.216Z,17.55
2022-09-03T06:14:42.246Z,17.57
2022-09-03T06:15:42.202Z,17.62
2022-09-03T06:16:42.239Z,17.63
2022-09-03T06:17:42.197Z,17.63
2022-09-03T06:18:42.206Z,17.65
2022-09-03T06:19:42.163Z,17.74
2022-09-03T06:20:42.193Z,17.89
2022-09-03T06:21:42.145Z,17.91
2022-09-03T06:22:42.140Z,18.04
2022-09-03T06:23:46.543Z,18.10
2022-09-03T06:24:42.117Z,18.19
2022-09-03T06:25:42.086Z,18.25
2022-09-03T06:26:42.989Z,18.34
2022-09-03T06:27:42.086Z,18.42
2022-09-03T06:28:42.382Z,18.44
2022-09-03T06:29:42.050Z,18.39
2022-09-03T06:30:42.087Z,18.46
2022-09-03T06:31:42.114Z,18.53
2022-09-03T06:32:42.002Z,18.50
2022-09-03T06:33:42.023Z,18.50
2022-09-03T06:34:42.040Z,18.54
2022-09-03T06:35:43.142Z,18.78
2022-09-03T06:36:41.964Z,18.91
2022-09-03T06:37:41.964Z,19.10
2022-09-03T06:38:41.980Z,19.20
2022-09-03T06:39:42.057Z,19.27
2022-09-03T06:40:41.925Z,19.32
2022-09-03T06:41:41.936Z,19.32
2022-09-03T06:42:41.943Z,19.38
2022-09-03T06:43:41.992Z,19.49
2022-09-03T06:44:41.891Z,19.34
2022-09-03T06:45:42.014Z,19.45
2022-09-03T06:46:41.845Z,19.46
2022-09-03T06:47:41.844Z,19.61
2022-09-03T06:48:41.862Z,19.72
2022-09-03T06:49:41.830Z,19.89
2022-09-03T06:50:41.818Z,19.95
2022-09-03T06:51:41.788Z,20.10
2022-09-03T06:52:41.818Z,20.15
2022-09-03T06:53:41.783Z,20.08
2022-09-03T06:54:41.761Z,20.10
2022-09-03T06:55:41.744Z,20.16
2022-09-03T06:56:41.818Z,20.17
2022-09-03T06:57:41.728Z,20.07
2022-09-03T06:58:41.745Z,20.16
2022-09-03T06:59:41.717Z,20.08
2022-09-03T07:00:41.806Z,20.00
2022-09-03T07:01:44.233Z,20.01
2022-09-03T07:02:44.904Z,19.94
2022-09-03T07:03:41.680Z,19.80
2022-09-03T07:04:41.671Z,19.85
2022-09-03T07:05:41.636Z,19.86
2022-09-03T07:06:41.635Z,19.83
2022-09-03T07:07:41.616Z,19.89
2022-09-03T07:08:41.609Z,19.85
2022-09-03T07:09:45.058Z,19.94
2022-09-03T07:10:42.584Z,19.94
2022-09-03T07:11:41.572Z,20.02
2022-09-03T07:12:41.654Z,19.92
2022-09-03T07:13:41.589Z,20.02
2022-09-03T07:14:41.562Z,20.75
2022-09-03T07:15:41.566Z,21.48
2022-09-03T07:16:41.731Z,22.01
2022-09-03T07:17:41.513Z,22.81
2022-09-03T07:18:41.546Z,23.68
2022-09-03T07:19:41.486Z,24.34
2022-09-03T07:20:41.505Z,24.31
2022-09-03T07:21:44.065Z,24.41
2022-09-03T07:22:42.460Z,24.31
2022-09-03T07:23:41.471Z,23.97
2022-09-03T07:24:41.506Z,23.86
2022-09-03T07:25:41.437Z,23.74
2022-09-03T07:26:41.431Z,23.84
2022-09-03T07:27:41.401Z,24.00
2022-09-03T07:28:41.408Z,24.52
2022-09-03T07:29:41.380Z,25.02
2022-09-03T07:30:41.390Z,25.36
2022-09-03T07:31:41.459Z,25.14
2022-09-03T07:32:41.349Z,24.93
2022-09-03T07:33:41.353Z,24.87
2022-09-03T07:34:41.327Z,24.80
2022-09-03T07:35:41.315Z,24.30
2022-09-03T07:36:41.311Z,23.64
2022-09-03T07:37:41.348Z,23.54
2022-09-03T07:38:41.310Z,23.78
2022-09-03T07:39:41.314Z,23.89
2022-09-03T07:40:41.304Z,23.94
2022-09-03T07:41:41.249Z,23.82
2022-09-03T07:42:41.244Z,23.62
2022-09-03T07:43:41.245Z,23.59
2022-09-03T07:44:41.214Z,23.63
2022-09-03T07:45:41.229Z,23.35
2022-09-03T07:46:41.223Z,23.32
2022-09-03T07:47:41.183Z,23.22
2022-09-03T07:48:41.209Z,23.15
2022-09-03T07:49:41.158Z,23.38
2022-09-03T07:50:41.142Z,23.35
2022-09-03T07:51:41.162Z,23.26
2022-09-03T07:52:41.146Z,23.21
2022-09-03T07:53:41.132Z,23.34
2022-09-03T07:54:41.100Z,23.38
2022-09-03T07:55:41.093Z,23.25
2022-09-03T07:56:41.140Z,23.38
2022-09-03T07:57:41.144Z,23.41
2022-09-03T07:58:41.060Z,23.45
2022-09-03T07:59:41.044Z,23.39
2022-09-03T08:00:41.108Z,23.37
2022-09-03T08:01:41.332Z,23.22
2022-09-03T08:02:45.511Z,23.31
2022-09-03T08:03:42.083Z,23.15
2022-09-03T08:04:40.993Z,22.96
2022-09-03T08:05:40.983Z,23.14
2022-09-03T08:06:40.993Z,23.25
2022-09-03T08:07:40.959Z,23.22
2022-09-03T08:08:40.958Z,23.77
2022-09-03T08:09:40.973Z,23.99
2022-09-03T08:10:40.923Z,24.66
2022-09-03T08:11:40.924Z,24.87
2022-09-03T08:12:40.901Z,24.75
2022-09-03T08:13:40.908Z,24.51
2022-09-03T08:14:40.878Z,24.55
2022-09-03T08:15:40.895Z,24.51
2022-09-03T08:16:40.880Z,25.01
2022-09-03T08:17:40.850Z,25.02
2022-09-03T08:18:40.869Z,25.31
2022-09-03T08:19:40.824Z,25.12
2022-09-03T08:20:40.840Z,24.94
2022-09-03T08:21:40.931Z,24.84
2022-09-03T08:22:40.810Z,24.87
2022-09-03T08:23:40.803Z,24.93
2022-09-03T08:24:40.773Z,24.84
2022-09-03T08:25:40.764Z,24.82
2022-09-03T08:26:40.752Z,24.84
2022-09-03T08:27:40.757Z,24.66
2022-09-03T08:28:40.785Z,24.48
2022-09-03T08:29:40.731Z,24.33
2022-09-03T08:30:40.702Z,24.12
2022-09-03T08:31:40.739Z,24.18
2022-09-03T08:32:40.678Z,24.41
2022-09-03T08:33:40.706Z,24.79
2022-09-03T08:34:40.713Z,24.70
2022-09-03T08:35:40.664Z,24.52
2022-09-03T08:36:40.637Z,24.41
2022-09-03T08:37:40.631Z,24.39
2022-09-03T08:38:40.640Z,24.31
2022-09-03T08:39:40.667Z,24.05
2022-09-03T08:40:40.652Z,23.82
2022-09-03T08:41:40.602Z,23.75
2022-09-03T08:42:40.568Z,23.68
2022-09-03T08:43:40.581Z,23.57
2022-09-03T08:44:40.593Z,23.53
2022-09-03T08:45:40.546Z,23.38
2022-09-03T08:46:40.587Z,23.26
2022-09-03T08:47:40.519Z,23.19
2022-09-03T08:48:40.507Z,23.03
2022-09-03T08:49:40.530Z,22.96
2022-09-03T08:50:40.482Z,22.96
2022-09-03T08:51:40.512Z,22.93
2022-09-03T08:52:40.460Z,22.85
2022-09-03T08:53:40.481Z,22.81
2022-09-03T08:54:40.448Z,22.85
2022-09-03T08:55:40.470Z,22.88
2022-09-03T08:56:40.414Z,22.86
2022-09-03T08:57:40.414Z,22.75
2022-09-03T08:58:40.447Z,22.76
2022-09-03T08:59:40.429Z,22.86
2022-09-03T09:00:40.381Z,22.84
2022-09-03T09:01:40.496Z,22.97
2022-09-03T09:02:40.563Z,23.03
2022-09-03T09:03:40.365Z,23.14
2022-09-03T09:04:40.329Z,23.12
2022-09-03T09:05:40.378Z,23.07
2022-09-03T09:06:40.317Z,23.09
2022-09-03T09:07:40.303Z,23.07
2022-09-03T09:08:40.300Z,23.04
2022-09-03T09:09:40.310Z,22.91
2022-09-03T09:10:40.272Z,22.93
2022-09-03T09:11:40.276Z,22.86
2022-09-03T09:12:46.313Z,22.78
2022-09-03T09:13:41.312Z,22.72
2022-09-03T09:14:40.225Z,22.67
2022-09-03T09:15:40.229Z,22.66
2022-09-03T09:16:40.200Z,22.56
2022-09-03T09:17:40.228Z,22.57
2022-09-03T09:18:40.202Z,22.63
2022-09-03T09:19:40.199Z,22.44
2022-09-03T09:20:40.166Z,22.48
2022-09-03T09:21:40.147Z,22.46
2022-09-03T09:22:40.135Z,22.49
2022-09-03T09:23:40.145Z,22.44
2022-09-03T09:24:40.124Z,22.42
2022-09-03T09:25:40.132Z,22.41
2022-09-03T09:26:40.110Z,22.30
2022-09-03T09:27:40.109Z,22.36
2022-09-03T09:28:40.080Z,22.35
2022-09-03T09:29:40.069Z,22.31
2022-09-03T09:30:40.054Z,22.38
2022-09-03T09:31:40.132Z,22.31
2022-09-03T09:32:40.022Z,22.23
2022-09-03T09:33:40.046Z,22.08
2022-09-03T09:34:40.005Z,22.01
2022-09-03T09:35:40.000Z,22.01
2022-09-03T09:36:40.016Z,21.94
2022-09-03T09:37:39.985Z,21.89
2022-09-03T09:38:40.028Z,21.82
2022-09-03T09:39:39.999Z,21.82
2022-09-03T09:40:44.798Z,21.82
2022-09-03T09:41:40.937Z,21.73
2022-09-03T09:42:39.928Z,21.67
2022-09-03T09:43:39.959Z,21.70
2022-09-03T09:44:39.938Z,21.52
2022-09-03T09:45:39.896Z,21.51
2022-09-03T09:46:39.944Z,21.36
2022-09-03T09:47:39.889Z,21.27
2022-09-03T09:48:39.919Z,21.19
2022-09-03T09:49:39.838Z,21.19
2022-09-03T09:50:39.836Z,21.13
2022-09-03T09:51:39.848Z,21.09
2022-09-03T09:52:39.842Z,21.00
2022-09-03T09:53:39.844Z,20.98
2022-09-03T09:54:39.874Z,20.85
2022-09-03T09:55:39.803Z,20.76
2022-09-03T09:56:39.775Z,20.50
2022-09-03T09:57:39.775Z,20.42
2022-09-03T09:58:39.764Z,20.27
2022-09-03T09:59:39.739Z,20.25
2022-09-03T10:00:39.748Z,20.19
2022-09-03T10:01:39.783Z,20.05
2022-09-03T10:02:39.780Z,20.07
2022-09-03T10:03:39.695Z,19.95
2022-09-03T10:04:39.721Z,19.85
2022-09-03T10:05:39.662Z,19.76
2022-09-03T10:06:39.672Z,19.75
2022-09-03T10:07:39.640Z,19.65
2022-09-03T10:08:39.696Z,19.46
2022-09-03T10:09:39.616Z,19.30
2022-09-03T10:10:39.605Z,19.21
2022-09-03T10:11:39.622Z,18.99
2022-09-03T10:12:39.589Z,18.90
2022-09-03T10:13:39.626Z,18.79
2022-09-03T10:14:39.560Z,18.66
2022-09-03T10:15:39.574Z,18.57
2022-09-03T10:16:39.541Z,18.47
2022-09-03T10:17:39.530Z,18.44
2022-09-03T10:18:39.546Z,18.35
2022-09-03T10:19:39.639Z,18.34
2022-09-03T10:20:39.549Z,18.28
2022-09-03T10:21:39.546Z,18.32
2022-09-03T10:22:39.480Z,18.25
2022-09-03T10:23:40.482Z,18.25
2022-09-03T10:24:39.463Z,18.17
2022-09-03T10:25:39.472Z,18.16
2022-09-03T10:26:39.447Z,18.07
2022-09-03T10:27:41.024Z,17.99
2022-09-03T10:28:39.443Z,18.02
2022-09-03T10:29:39.397Z,18.01
2022-09-03T10:30:39.446Z,17.98
2022-09-03T10:31:39.375Z,17.87
2022-09-03T10:32:41.838Z,17.84
2022-09-03T10:33:39.370Z,17.80
2022-09-03T10:34:39.343Z,17.89
2022-09-03T10:35:39.343Z,17.80
2022-09-03T10:36:39.333Z,17.74
2022-09-03T10:37:39.309Z,17.86
2022-09-03T10:38:39.325Z,17.87
2022-09-03T10:39:43.264Z,17.83
2022-09-03T10:40:39.331Z,17.94
2022-09-03T10:41:39.276Z,17.87
2022-09-03T10:42:39.257Z,17.92
2022-09-03T10:43:39.268Z,17.87
2022-09-03T10:44:39.251Z,17.89
2022-09-03T10:45:39.229Z,17.89
2022-09-03T10:46:39.270Z,17.84
2022-09-03T10:47:39.207Z,18.11
2022-09-03T10:48:39.205Z,18.10
2022-09-03T10:49:39.222Z,17.96
2022-09-03T10:50:39.166Z,18.14
2022-09-03T10:51:39.188Z,18.13
2022-09-03T10:52:39.145Z,18.21
2022-09-03T10:53:39.247Z,18.23
2022-09-03T10:54:39.138Z,18.29
2022-09-03T10:55:39.141Z,18.28
2022-09-03T10:56:39.107Z,18.31
2022-09-03T10:57:39.097Z,18.35
2022-09-03T10:58:39.116Z,18.46
2022-09-03T10:59:39.071Z,18.42
2022-09-03T11:00:39.070Z,18.62
2022-09-03T11:01:39.125Z,18.59
2022-09-03T11:02:39.187Z,18.66
2022-09-03T11:03:39.131Z,18.69
2022-09-03T11:04:39.037Z,18.71
2022-09-03T11:05:39.020Z,18.71
2022-09-03T11:06:39.117Z,18.76
2022-09-03T11:07:39.009Z,18.78
2022-09-03T11:08:39.359Z,18.89
2022-09-03T11:09:38.977Z,19.05
2022-09-03T11:10:38.992Z,19.12
2022-09-03T11:11:38.954Z,19.28
2022-09-03T11:12:38.986Z,19.35
2022-09-03T11:13:38.981Z,19.50
2022-09-03T11:14:38.984Z,19.53
2022-09-03T11:15:38.953Z,19.62
2022-09-03T11:16:38.909Z,19.60
2022-09-03T11:17:38.916Z,19.68
2022-09-03T11:18:38.902Z,19.86
2022-09-03T11:19:38.892Z,20.15
2022-09-03T11:20:38.910Z,20.19
2022-09-03T11:21:38.853Z,20.37
2022-09-03T11:22:38.822Z,20.46
2022-09-03T11:23:38.852Z,20.68
2022-09-03T11:24:38.834Z,20.68
2022-09-03T11:25:38.805Z,20.75
2022-09-03T11:26:38.803Z,20.85
2022-09-03T11:27:38.781Z,20.94
2022-09-03T11:28:38.782Z,21.30
2022-09-03T11:29:38.749Z,21.61
2022-09-03T11:30:38.767Z,22.17
2022-09-03T11:31:38.735Z,22.94
2022-09-03T11:32:38.753Z,23.38
2022-09-03T11:33:38.757Z,23.90
2022-09-03T11:34:38.728Z,23.89
2022-09-03T11:35:38.690Z,24.26
2022-09-03T11:36:38.708Z,24.67
2022-09-03T11:37:38.693Z,24.97
2022-09-03T11:38:38.672Z,25.24
2022-09-03T11:39:38.776Z,25.44
2022-09-03T11:40:38.649Z,25.57
2022-09-03T11:41:38.646Z,25.35
2022-09-03T11:42:38.653Z,24.83
2022-09-03T11:43:38.654Z,24.71
2022-09-03T11:44:47.903Z,24.79
2022-09-03T11:45:39.669Z,24.36
2022-09-03T11:46:38.664Z,24.19
2022-09-03T11:47:38.555Z,24.42
2022-09-03T11:48:38.621Z,24.71
2022-09-03T11:49:38.531Z,25.01
2022-09-03T11:50:38.593Z,24.63
2022-09-03T11:51:38.546Z,24.42
2022-09-03T11:52:38.527Z,23.97
2022-09-03T11:53:38.490Z,23.90
2022-09-03T11:54:38.523Z,23.59
2022-09-03T11:55:42.098Z,23.49
2022-09-03T11:56:39.502Z,23.37
2022-09-03T11:57:38.464Z,23.09
2022-09-03T11:58:38.475Z,22.78
2022-09-03T11:59:38.440Z,22.59
2022-09-03T12:00:38.429Z,22.15
2022-09-03T12:01:38.438Z,22.06
2022-09-03T12:02:38.494Z,21.93
2022-09-03T12:03:38.452Z,21.82
2022-09-03T12:04:38.509Z,22.01
2022-09-03T12:05:38.368Z,22.15
2022-09-03T12:06:38.351Z,22.86
2022-09-03T12:07:38.407Z,23.54
2022-09-03T12:08:38.373Z,23.78
2022-09-03T12:09:38.358Z,24.26
2022-09-03T12:10:38.369Z,24.92
2022-09-03T12:11:38.333Z,25.23
2022-09-03T12:12:38.285Z,25.34
2022-09-03T12:13:38.334Z,24.89
2022-09-03T12:14:38.280Z,24.97
2022-09-03T12:15:38.419Z,24.18
2022-09-03T12:16:38.280Z,24.04
2022-09-03T12:17:38.254Z,23.97
2022-09-03T12:18:38.264Z,24.33
2022-09-03T12:19:38.245Z,24.83
2022-09-03T12:20:38.214Z,25.38
2022-09-03T12:21:38.212Z,25.71
2022-09-03T12:22:38.193Z,26.06
2022-09-03T12:23:38.263Z,26.38
2022-09-03T12:24:38.542Z,26.27
2022-09-03T12:25:38.236Z,26.66
2022-09-03T12:26:38.143Z,27.12
2022-09-03T12:27:38.141Z,27.49
2022-09-03T12:28:38.119Z,27.52
2022-09-03T12:29:38.144Z,27.12
2022-09-03T12:30:38.241Z,26.59
2022-09-03T12:31:42.532Z,26.38
2022-09-03T12:32:39.073Z,26.34
2022-09-03T12:33:38.102Z,26.61
2022-09-03T12:34:38.050Z,26.81
2022-09-03T12:36:39.034Z,26.57
2022-09-03T12:39:07.602Z,25.53
2022-09-03T12:40:09.234Z,25.39
2022-09-03T12:41:24.112Z,25.51
2022-09-03T12:41:39.047Z,25.54
2022-09-03T12:42:37.969Z,25.66
2022-09-03T12:43:39.194Z,25.53
2022-09-03T12:44:37.962Z,25.60
2022-09-03T12:46:38.994Z,25.83
2022-09-03T12:47:38.369Z,26.04
2022-09-03T12:48:40.527Z,26.06
2022-09-03T12:49:38.888Z,26.19
2022-09-03T12:50:42.485Z,26.21
2022-09-03T12:51:58.173Z,26.28
2022-09-03T12:52:38.869Z,25.81
2022-09-03T12:53:37.885Z,25.45
2022-09-03T12:54:37.833Z,25.24
2022-09-03T12:55:37.833Z,24.90
2022-09-03T12:56:42.597Z,24.63
2022-09-03T12:57:37.803Z,24.44
2022-09-03T12:58:37.846Z,24.30